Kezdőlap
METAR-TAF:

METAR-TAF

Repülőterek :

Santiago de Chile, Chile

földrajzi szélesség: 33-27-23S, földrajzi hosszúság: 070-32-48W, magasság: 646 m

Jelenlegi meteorológiai megfigyelések

A jelentés 10 órával és 56 perccel ezelõtt készült, 22:00 UTC
Délnyugati szél 6 kt
Hőmérséklet 18°C
Páratartalom 34%
Légköri nyomás 1018 hPa
Látótávolság 10 km, vagy több
felhőtlen 1500 m magasságban, és nincs gomolyfelhõ

METAR: SCTB 242200Z 23006KT CAVOK 18/02 Q1018

Idő: 04:56 (08:56 UTC)


TAF: hiányzik

Meteorológiai megfigyelések és előrejelzések több, mint 4000 repülőtéren (METAR és TAF jelentéseket).

A térképen piros és sárga pontok jelzik az elérhető meteorológiai állomásokat.

Mozgassa az egeret a pont fölött, hogy megjelenjen az állomás neve.

Azután kattintson az időjárási megfigyelések és előrejelzések megtekintéséhez.

A térkép megváltoztatása: kattintson a fekete keresztel jelölt zöld gombra ráközelítéshez, a vonallal jelölt zöld gombra távolításhoz, vagy a zöld nyilakra a szomszédos térképek eléréséhez.


METAR-TAF: